sensor_id;sensor_type;location;lat;lon;timestamp;temperature;humidity
54930;DHT22;40833;53.238;6.576;2024-03-02T00:01:42;7.20;99.90
54930;DHT22;40833;53.238;6.576;2024-03-02T00:04:08;7.20;99.90
54930;DHT22;40833;53.238;6.576;2024-03-02T00:06:34;7.20;99.90
54930;DHT22;40833;53.238;6.576;2024-03-02T00:09:00;7.10;99.90
54930;DHT22;40833;53.238;6.576;2024-03-02T00:11:25;7.10;99.90
54930;DHT22;40833;53.238;6.576;2024-03-02T00:13:53;7.10;99.90
54930;DHT22;40833;53.238;6.576;2024-03-02T00:16:19;7.10;99.90
54930;DHT22;40833;53.238;6.576;2024-03-02T00:18:45;7.00;99.90
54930;DHT22;40833;53.238;6.576;2024-03-02T00:21:11;7.00;99.90
54930;DHT22;40833;53.238;6.576;2024-03-02T00:23:38;7.00;99.90
54930;DHT22;40833;53.238;6.576;2024-03-02T00:26:05;7.10;99.90
54930;DHT22;40833;53.238;6.576;2024-03-02T00:28:35;7.00;99.90
54930;DHT22;40833;53.238;6.576;2024-03-02T00:31:11;7.00;99.90
54930;DHT22;40833;53.238;6.576;2024-03-02T00:33:49;7.00;99.90
54930;DHT22;40833;53.238;6.576;2024-03-02T00:36:16;7.00;99.90
54930;DHT22;40833;53.238;6.576;2024-03-02T00:38:50;7.00;99.90
54930;DHT22;40833;53.238;6.576;2024-03-02T00:41:30;6.80;99.90
54930;DHT22;40833;53.238;6.576;2024-03-02T00:44:02;6.90;99.90
54930;DHT22;40833;53.238;6.576;2024-03-02T00:46:36;6.90;99.90
54930;DHT22;40833;53.238;6.576;2024-03-02T00:49:04;6.90;99.90
54930;DHT22;40833;53.238;6.576;2024-03-02T00:51:31;6.90;99.90
54930;DHT22;40833;53.238;6.576;2024-03-02T00:54:03;6.90;99.90
54930;DHT22;40833;53.238;6.576;2024-03-02T00:56:30;6.90;99.90
54930;DHT22;40833;53.238;6.576;2024-03-02T00:58:56;7.00;99.90
54930;DHT22;40833;53.238;6.576;2024-03-02T01:01:22;6.90;99.90
54930;DHT22;40833;53.238;6.576;2024-03-02T01:03:49;7.00;99.90
54930;DHT22;40833;53.238;6.576;2024-03-02T01:06:18;7.00;99.90
54930;DHT22;40833;53.238;6.576;2024-03-02T01:08:44;6.90;99.90
54930;DHT22;40833;53.238;6.576;2024-03-02T01:11:10;7.30;99.90
54930;DHT22;40833;53.238;6.576;2024-03-02T01:13:35;6.90;99.90
54930;DHT22;40833;53.238;6.576;2024-03-02T01:16:02;6.90;99.90
54930;DHT22;40833;53.238;6.576;2024-03-02T01:18:28;6.90;99.90
54930;DHT22;40833;53.238;6.576;2024-03-02T01:20:53;6.90;99.90
54930;DHT22;40833;53.238;6.576;2024-03-02T01:23:24;6.90;99.90
54930;DHT22;40833;53.238;6.576;2024-03-02T01:25:50;7.10;99.90
54930;DHT22;40833;53.238;6.576;2024-03-02T01:28:17;6.90;99.90
54930;DHT22;40833;53.238;6.576;2024-03-02T01:30:43;6.90;99.90
54930;DHT22;40833;53.238;6.576;2024-03-02T01:33:09;6.90;99.90
54930;DHT22;40833;53.238;6.576;2024-03-02T01:35:34;6.90;99.90
54930;DHT22;40833;53.238;6.576;2024-03-02T01:38:01;7.00;99.90
54930;DHT22;40833;53.238;6.576;2024-03-02T01:40:27;6.90;99.90
54930;DHT22;40833;53.238;6.576;2024-03-02T01:42:53;7.00;99.90
54930;DHT22;40833;53.238;6.576;2024-03-02T01:45:24;7.00;99.90
54930;DHT22;40833;53.238;6.576;2024-03-02T01:47:49;8.00;99.90
54930;DHT22;40833;53.238;6.576;2024-03-02T01:50:23;7.10;99.90
54930;DHT22;40833;53.238;6.576;2024-03-02T01:52:49;7.00;99.90
54930;DHT22;40833;53.238;6.576;2024-03-02T01:55:15;7.10;99.90
54930;DHT22;40833;53.238;6.576;2024-03-02T01:57:41;7.10;99.90
54930;DHT22;40833;53.238;6.576;2024-03-02T02:00:07;7.30;99.90
54930;DHT22;40833;53.238;6.576;2024-03-02T02:02:33;7.10;99.90
54930;DHT22;40833;53.238;6.576;2024-03-02T02:04:58;7.30;99.90
54930;DHT22;40833;53.238;6.576;2024-03-02T02:07:24;7.10;99.90
54930;DHT22;40833;53.238;6.576;2024-03-02T02:09:50;7.10;99.90
54930;DHT22;40833;53.238;6.576;2024-03-02T02:12:16;7.10;99.90
54930;DHT22;40833;53.238;6.576;2024-03-02T02:14:48;7.10;99.90
54930;DHT22;40833;53.238;6.576;2024-03-02T02:17:16;7.00;99.90
54930;DHT22;40833;53.238;6.576;2024-03-02T02:19:42;7.10;99.90
54930;DHT22;40833;53.238;6.576;2024-03-02T02:22:09;7.10;99.90
54930;DHT22;40833;53.238;6.576;2024-03-02T02:24:35;7.00;99.90
54930;DHT22;40833;53.238;6.576;2024-03-02T02:27:00;7.10;99.90
54930;DHT22;40833;53.238;6.576;2024-03-02T02:29:26;7.20;99.90
54930;DHT22;40833;53.238;6.576;2024-03-02T02:31:52;7.10;99.90
54930;DHT22;40833;53.238;6.576;2024-03-02T02:34:18;7.20;99.90
54930;DHT22;40833;53.238;6.576;2024-03-02T02:36:43;7.20;99.90
54930;DHT22;40833;53.238;6.576;2024-03-02T02:39:13;7.20;99.90
54930;DHT22;40833;53.238;6.576;2024-03-02T02:41:41;7.00;99.90
54930;DHT22;40833;53.238;6.576;2024-03-02T02:44:06;7.20;99.90
54930;DHT22;40833;53.238;6.576;2024-03-02T02:46:32;7.20;99.90
54930;DHT22;40833;53.238;6.576;2024-03-02T02:48:58;7.20;99.90
54930;DHT22;40833;53.238;6.576;2024-03-02T02:51:23;7.20;99.90
54930;DHT22;40833;53.238;6.576;2024-03-02T02:53:51;7.20;99.90
54930;DHT22;40833;53.238;6.576;2024-03-02T02:56:16;7.40;99.90
54930;DHT22;40833;53.238;6.576;2024-03-02T02:58:42;7.30;99.90
54930;DHT22;40833;53.238;6.576;2024-03-02T03:01:08;7.30;99.90
54930;DHT22;40833;53.238;6.576;2024-03-02T03:03:34;7.30;99.90
54930;DHT22;40833;53.238;6.576;2024-03-02T03:06:00;7.30;99.90
54930;DHT22;40833;53.238;6.576;2024-03-02T03:08:25;7.30;99.90
54930;DHT22;40833;53.238;6.576;2024-03-02T03:10:51;7.30;99.90
54930;DHT22;40833;53.238;6.576;2024-03-02T03:13:16;7.40;99.90
54930;DHT22;40833;53.238;6.576;2024-03-02T03:15:42;7.40;99.90
54930;DHT22;40833;53.238;6.576;2024-03-02T03:18:09;7.40;99.90
54930;DHT22;40833;53.238;6.576;2024-03-02T03:20:36;7.40;99.90
54930;DHT22;40833;53.238;6.576;2024-03-02T03:23:01;7.50;99.90
54930;DHT22;40833;53.238;6.576;2024-03-02T03:25:27;7.50;99.90
54930;DHT22;40833;53.238;6.576;2024-03-02T03:27:53;7.50;99.90
54930;DHT22;40833;53.238;6.576;2024-03-02T03:30:18;7.80;99.90
54930;DHT22;40833;53.238;6.576;2024-03-02T03:32:44;7.50;99.90
54930;DHT22;40833;53.238;6.576;2024-03-02T03:35:10;8.30;99.90
54930;DHT22;40833;53.238;6.576;2024-03-02T03:37:37;7.70;99.90
54930;DHT22;40833;53.238;6.576;2024-03-02T03:40:04;7.70;99.90
54930;DHT22;40833;53.238;6.576;2024-03-02T03:42:36;7.70;99.90
54930;DHT22;40833;53.238;6.576;2024-03-02T03:45:02;7.80;99.90
54930;DHT22;40833;53.238;6.576;2024-03-02T03:47:28;7.70;99.90
54930;DHT22;40833;53.238;6.576;2024-03-02T03:49:53;7.60;99.90
54930;DHT22;40833;53.238;6.576;2024-03-02T03:52:19;7.50;99.90
54930;DHT22;40833;53.238;6.576;2024-03-02T03:54:45;7.50;99.90
54930;DHT22;40833;53.238;6.576;2024-03-02T03:57:10;7.70;99.90
54930;DHT22;40833;53.238;6.576;2024-03-02T03:59:36;7.30;99.90
54930;DHT22;40833;53.238;6.576;2024-03-02T04:02:04;7.50;99.90
54930;DHT22;40833;53.238;6.576;2024-03-02T04:04:30;7.40;99.90
54930;DHT22;40833;53.238;6.576;2024-03-02T04:06:55;7.40;99.90
54930;DHT22;40833;53.238;6.576;2024-03-02T04:09:21;7.40;99.90
54930;DHT22;40833;53.238;6.576;2024-03-02T04:11:47;7.30;99.90
54930;DHT22;40833;53.238;6.576;2024-03-02T04:14:12;7.30;99.90
54930;DHT22;40833;53.238;6.576;2024-03-02T04:16:38;7.30;99.90
54930;DHT22;40833;53.238;6.576;2024-03-02T04:19:04;7.30;99.90
54930;DHT22;40833;53.238;6.576;2024-03-02T04:21:30;7.30;99.90
54930;DHT22;40833;53.238;6.576;2024-03-02T04:23:56;7.30;99.90
54930;DHT22;40833;53.238;6.576;2024-03-02T04:26:25;7.20;99.90
54930;DHT22;40833;53.238;6.576;2024-03-02T04:28:52;7.50;99.90
54930;DHT22;40833;53.238;6.576;2024-03-02T04:31:17;7.20;99.90
54930;DHT22;40833;53.238;6.576;2024-03-02T04:33:43;7.20;99.90
54930;DHT22;40833;53.238;6.576;2024-03-02T04:36:09;7.20;99.90
54930;DHT22;40833;53.238;6.576;2024-03-02T04:38:38;7.30;99.90
54930;DHT22;40833;53.238;6.576;2024-03-02T04:41:07;7.40;99.90
54930;DHT22;40833;53.238;6.576;2024-03-02T04:43:33;7.30;99.90
54930;DHT22;40833;53.238;6.576;2024-03-02T04:45:59;7.30;99.90
54930;DHT22;40833;53.238;6.576;2024-03-02T04:48:25;7.40;99.90
54930;DHT22;40833;53.238;6.576;2024-03-02T04:50:51;7.90;99.90
54930;DHT22;40833;53.238;6.576;2024-03-02T04:53:16;7.40;99.90
54930;DHT22;40833;53.238;6.576;2024-03-02T04:55:42;7.40;99.90
54930;DHT22;40833;53.238;6.576;2024-03-02T04:58:08;7.40;99.90
54930;DHT22;40833;53.238;6.576;2024-03-02T05:00:34;7.30;99.90
54930;DHT22;40833;53.238;6.576;2024-03-02T05:03:00;7.90;99.90
54930;DHT22;40833;53.238;6.576;2024-03-02T05:05:26;7.20;99.90
54930;DHT22;40833;53.238;6.576;2024-03-02T05:07:52;7.20;99.90
54930;DHT22;40833;53.238;6.576;2024-03-02T05:10:18;7.20;99.90
54930;DHT22;40833;53.238;6.576;2024-03-02T05:12:43;7.20;99.90
54930;DHT22;40833;53.238;6.576;2024-03-02T05:15:13;7.10;99.90
54930;DHT22;40833;53.238;6.576;2024-03-02T05:17:40;7.10;99.90
54930;DHT22;40833;53.238;6.576;2024-03-02T05:20:07;7.20;99.90
54930;DHT22;40833;53.238;6.576;2024-03-02T05:22:36;7.20;99.90
54930;DHT22;40833;53.238;6.576;2024-03-02T05:25:03;7.20;99.90
54930;DHT22;40833;53.238;6.576;2024-03-02T05:27:29;7.20;99.90
54930;DHT22;40833;53.238;6.576;2024-03-02T05:29:54;7.70;99.90
54930;DHT22;40833;53.238;6.576;2024-03-02T05:32:20;7.10;99.90
54930;DHT22;40833;53.238;6.576;2024-03-02T05:34:46;7.10;99.90
54930;DHT22;40833;53.238;6.576;2024-03-02T05:37:11;7.10;99.90
54930;DHT22;40833;53.238;6.576;2024-03-02T05:39:37;7.10;99.90
54930;DHT22;40833;53.238;6.576;2024-03-02T05:42:03;7.10;99.90
54930;DHT22;40833;53.238;6.576;2024-03-02T05:44:29;7.10;99.90
54930;DHT22;40833;53.238;6.576;2024-03-02T05:46:55;7.90;99.90
54930;DHT22;40833;53.238;6.576;2024-03-02T05:49:21;7.00;99.90
54930;DHT22;40833;53.238;6.576;2024-03-02T05:51:47;7.20;99.90
54930;DHT22;40833;53.238;6.576;2024-03-02T05:54:12;7.60;99.90
54930;DHT22;40833;53.238;6.576;2024-03-02T05:56:38;7.10;99.90
54930;DHT22;40833;53.238;6.576;2024-03-02T05:59:04;7.00;99.90
54930;DHT22;40833;53.238;6.576;2024-03-02T06:01:41;7.00;99.90
54930;DHT22;40833;53.238;6.576;2024-03-02T06:04:11;7.00;99.90
54930;DHT22;40833;53.238;6.576;2024-03-02T06:06:37;7.00;99.90
54930;DHT22;40833;53.238;6.576;2024-03-02T06:09:04;8.40;99.90
54930;DHT22;40833;53.238;6.576;2024-03-02T06:11:39;7.00;99.90
54930;DHT22;40833;53.238;6.576;2024-03-02T06:14:06;7.10;99.90
54930;DHT22;40833;53.238;6.576;2024-03-02T06:16:33;7.50;99.90
54930;DHT22;40833;53.238;6.576;2024-03-02T06:18:59;7.60;99.90
54930;DHT22;40833;53.238;6.576;2024-03-02T06:21:25;7.10;99.90
54930;DHT22;40833;53.238;6.576;2024-03-02T06:23:50;7.20;99.90
54930;DHT22;40833;53.238;6.576;2024-03-02T06:26:16;7.50;99.90
54930;DHT22;40833;53.238;6.576;2024-03-02T06:28:42;7.20;99.90
54930;DHT22;40833;53.238;6.576;2024-03-02T06:31:08;7.30;99.90
54930;DHT22;40833;53.238;6.576;2024-03-02T06:33:34;7.20;99.90
54930;DHT22;40833;53.238;6.576;2024-03-02T06:36:00;7.20;99.90
54930;DHT22;40833;53.238;6.576;2024-03-02T06:38:26;7.30;99.90
54930;DHT22;40833;53.238;6.576;2024-03-02T06:40:51;7.20;99.90
54930;DHT22;40833;53.238;6.576;2024-03-02T06:43:17;7.20;99.90
54930;DHT22;40833;53.238;6.576;2024-03-02T06:45:43;7.20;99.90
54930;DHT22;40833;53.238;6.576;2024-03-02T06:48:08;7.10;99.90
54930;DHT22;40833;53.238;6.576;2024-03-02T06:50:34;7.10;99.90
54930;DHT22;40833;53.238;6.576;2024-03-02T06:53:00;7.10;99.90
54930;DHT22;40833;53.238;6.576;2024-03-02T06:55:26;7.10;99.90
54930;DHT22;40833;53.238;6.576;2024-03-02T06:57:51;7.00;99.90
54930;DHT22;40833;53.238;6.576;2024-03-02T07:00:18;7.00;99.90
54930;DHT22;40833;53.238;6.576;2024-03-02T07:02:45;7.00;99.90
54930;DHT22;40833;53.238;6.576;2024-03-02T07:05:12;6.90;99.90
54930;DHT22;40833;53.238;6.576;2024-03-02T07:07:38;6.90;99.90
54930;DHT22;40833;53.238;6.576;2024-03-02T07:10:04;6.90;99.90
54930;DHT22;40833;53.238;6.576;2024-03-02T07:12:30;6.90;99.90
54930;DHT22;40833;53.238;6.576;2024-03-02T07:14:57;6.90;99.90
54930;DHT22;40833;53.238;6.576;2024-03-02T07:17:31;6.90;99.90
54930;DHT22;40833;53.238;6.576;2024-03-02T07:19:58;6.90;99.90
54930;DHT22;40833;53.238;6.576;2024-03-02T07:22:23;7.10;99.90
54930;DHT22;40833;53.238;6.576;2024-03-02T07:24:49;8.60;99.90
54930;DHT22;40833;53.238;6.576;2024-03-02T07:27:16;7.10;99.90
54930;DHT22;40833;53.238;6.576;2024-03-02T07:29:42;7.10;99.90
54930;DHT22;40833;53.238;6.576;2024-03-02T07:32:09;7.10;99.90
54930;DHT22;40833;53.238;6.576;2024-03-02T07:34:35;7.20;99.90
54930;DHT22;40833;53.238;6.576;2024-03-02T07:37:01;9.00;99.90
54930;DHT22;40833;53.238;6.576;2024-03-02T07:39:27;7.40;99.90
54930;DHT22;40833;53.238;6.576;2024-03-02T07:41:53;7.40;99.90
54930;DHT22;40833;53.238;6.576;2024-03-02T07:44:19;7.60;99.90
54930;DHT22;40833;53.238;6.576;2024-03-02T07:46:46;7.50;99.90
54930;DHT22;40833;53.238;6.576;2024-03-02T07:49:12;7.50;99.90
54930;DHT22;40833;53.238;6.576;2024-03-02T07:51:39;7.50;99.90
54930;DHT22;40833;53.238;6.576;2024-03-02T07:54:05;7.50;99.90
54930;DHT22;40833;53.238;6.576;2024-03-02T07:56:31;7.40;99.90
54930;DHT22;40833;53.238;6.576;2024-03-02T07:58:57;7.40;99.90
54930;DHT22;40833;53.238;6.576;2024-03-02T08:01:27;7.40;99.90
54930;DHT22;40833;53.238;6.576;2024-03-02T08:03:55;7.40;99.90
54930;DHT22;40833;53.238;6.576;2024-03-02T08:06:22;7.50;99.90
54930;DHT22;40833;53.238;6.576;2024-03-02T08:08:48;7.50;99.90
54930;DHT22;40833;53.238;6.576;2024-03-02T08:11:14;7.60;99.90
54930;DHT22;40833;53.238;6.576;2024-03-02T08:13:39;7.60;99.90
54930;DHT22;40833;53.238;6.576;2024-03-02T08:16:05;7.50;99.90
54930;DHT22;40833;53.238;6.576;2024-03-02T08:18:34;7.60;99.90
54930;DHT22;40833;53.238;6.576;2024-03-02T08:21:00;7.60;99.90
54930;DHT22;40833;53.238;6.576;2024-03-02T08:23:26;7.70;99.90
54930;DHT22;40833;53.238;6.576;2024-03-02T08:25:52;7.90;99.90
54930;DHT22;40833;53.238;6.576;2024-03-02T08:28:18;7.70;99.90
54930;DHT22;40833;53.238;6.576;2024-03-02T08:30:44;7.80;99.90
54930;DHT22;40833;53.238;6.576;2024-03-02T08:33:10;8.20;99.90
54930;DHT22;40833;53.238;6.576;2024-03-02T08:35:35;8.30;99.90
54930;DHT22;40833;53.238;6.576;2024-03-02T08:38:02;7.90;99.90
54930;DHT22;40833;53.238;6.576;2024-03-02T08:40:28;7.90;99.90
54930;DHT22;40833;53.238;6.576;2024-03-02T08:42:54;8.00;99.90
54930;DHT22;40833;53.238;6.576;2024-03-02T08:45:20;8.10;99.90
54930;DHT22;40833;53.238;6.576;2024-03-02T08:47:46;8.20;99.90
54930;DHT22;40833;53.238;6.576;2024-03-02T08:50:12;8.30;99.90
54930;DHT22;40833;53.238;6.576;2024-03-02T08:52:38;8.40;99.90
54930;DHT22;40833;53.238;6.576;2024-03-02T08:55:04;8.60;99.90
54930;DHT22;40833;53.238;6.576;2024-03-02T08:57:31;8.70;99.90
54930;DHT22;40833;53.238;6.576;2024-03-02T08:59:57;9.10;99.90
54930;DHT22;40833;53.238;6.576;2024-03-02T09:02:23;9.00;99.90
54930;DHT22;40833;53.238;6.576;2024-03-02T09:04:49;8.90;99.90
54930;DHT22;40833;53.238;6.576;2024-03-02T09:07:15;9.00;99.90
54930;DHT22;40833;53.238;6.576;2024-03-02T09:09:40;9.30;99.90
54930;DHT22;40833;53.238;6.576;2024-03-02T09:12:07;9.10;99.90
54930;DHT22;40833;53.238;6.576;2024-03-02T09:14:33;9.10;99.90
54930;DHT22;40833;53.238;6.576;2024-03-02T09:17:00;9.20;99.90
54930;DHT22;40833;53.238;6.576;2024-03-02T09:19:26;9.20;99.90
54930;DHT22;40833;53.238;6.576;2024-03-02T09:21:51;9.20;99.90
54930;DHT22;40833;53.238;6.576;2024-03-02T09:24:17;9.30;99.90
54930;DHT22;40833;53.238;6.576;2024-03-02T09:26:42;9.30;99.90
54930;DHT22;40833;53.238;6.576;2024-03-02T09:29:08;9.40;99.90
54930;DHT22;40833;53.238;6.576;2024-03-02T09:31:42;9.40;99.90
54930;DHT22;40833;53.238;6.576;2024-03-02T09:34:09;9.50;99.90
54930;DHT22;40833;53.238;6.576;2024-03-02T09:36:34;9.50;99.90
54930;DHT22;40833;53.238;6.576;2024-03-02T09:39:00;9.50;99.90
54930;DHT22;40833;53.238;6.576;2024-03-02T09:41:26;10.00;99.90
54930;DHT22;40833;53.238;6.576;2024-03-02T09:43:52;9.70;99.90
54930;DHT22;40833;53.238;6.576;2024-03-02T09:46:18;9.80;99.90
54930;DHT22;40833;53.238;6.576;2024-03-02T09:48:44;9.90;99.90
54930;DHT22;40833;53.238;6.576;2024-03-02T09:51:11;10.00;99.90
54930;DHT22;40833;53.238;6.576;2024-03-02T09:53:37;10.20;99.90
54930;DHT22;40833;53.238;6.576;2024-03-02T09:56:03;10.20;99.90
54930;DHT22;40833;53.238;6.576;2024-03-02T09:58:30;10.30;99.90
54930;DHT22;40833;53.238;6.576;2024-03-02T10:00:56;10.20;99.90
54930;DHT22;40833;53.238;6.576;2024-03-02T10:03:23;10.00;99.90
54930;DHT22;40833;53.238;6.576;2024-03-02T10:05:50;10.20;99.90
54930;DHT22;40833;53.238;6.576;2024-03-02T10:08:17;10.20;99.90
54930;DHT22;40833;53.238;6.576;2024-03-02T10:10:42;10.20;99.90
54930;DHT22;40833;53.238;6.576;2024-03-02T10:13:11;10.20;99.90
54930;DHT22;40833;53.238;6.576;2024-03-02T10:15:38;10.50;99.90
54930;DHT22;40833;53.238;6.576;2024-03-02T10:18:11;10.30;99.90
54930;DHT22;40833;53.238;6.576;2024-03-02T10:20:37;10.40;99.90
54930;DHT22;40833;53.238;6.576;2024-03-02T10:23:14;10.50;99.90
54930;DHT22;40833;53.238;6.576;2024-03-02T10:25:40;10.50;99.90
54930;DHT22;40833;53.238;6.576;2024-03-02T10:28:06;10.60;99.90
54930;DHT22;40833;53.238;6.576;2024-03-02T10:30:35;10.60;99.90
54930;DHT22;40833;53.238;6.576;2024-03-02T10:33:02;10.70;99.90
54930;DHT22;40833;53.238;6.576;2024-03-02T10:35:28;10.90;99.90
54930;DHT22;40833;53.238;6.576;2024-03-02T10:37:54;11.00;99.90
54930;DHT22;40833;53.238;6.576;2024-03-02T10:40:23;11.00;99.90
54930;DHT22;40833;53.238;6.576;2024-03-02T10:42:52;11.00;99.90
54930;DHT22;40833;53.238;6.576;2024-03-02T10:45:20;11.10;99.90
54930;DHT22;40833;53.238;6.576;2024-03-02T10:47:48;11.00;99.90
54930;DHT22;40833;53.238;6.576;2024-03-02T10:50:14;10.90;99.90
54930;DHT22;40833;53.238;6.576;2024-03-02T10:52:40;10.90;99.90
54930;DHT22;40833;53.238;6.576;2024-03-02T10:55:06;11.00;99.90
54930;DHT22;40833;53.238;6.576;2024-03-02T10:57:53;11.00;99.90
54930;DHT22;40833;53.238;6.576;2024-03-02T11:00:19;11.00;99.90
54930;DHT22;40833;53.238;6.576;2024-03-02T11:02:51;11.10;99.90
54930;DHT22;40833;53.238;6.576;2024-03-02T11:05:31;11.20;99.90
54930;DHT22;40833;53.238;6.576;2024-03-02T11:08:07;11.30;99.90
54930;DHT22;40833;53.238;6.576;2024-03-02T11:10:57;11.40;99.90
54930;DHT22;40833;53.238;6.576;2024-03-02T11:13:33;11.40;99.90
54930;DHT22;40833;53.238;6.576;2024-03-02T11:16:32;11.40;99.90
54930;DHT22;40833;53.238;6.576;2024-03-02T11:19:13;11.40;99.90
54930;DHT22;40833;53.238;6.576;2024-03-02T11:21:39;11.70;99.90
54930;DHT22;40833;53.238;6.576;2024-03-02T11:26:50;11.50;99.90
54930;DHT22;40833;53.238;6.576;2024-03-02T11:32:21;11.60;99.90
54930;DHT22;40833;53.238;6.576;2024-03-02T11:34:49;11.50;99.90
54930;DHT22;40833;53.238;6.576;2024-03-02T11:37:17;11.50;99.90
54930;DHT22;40833;53.238;6.576;2024-03-02T11:39:47;11.50;99.90
54930;DHT22;40833;53.238;6.576;2024-03-02T11:42:15;11.50;99.90
54930;DHT22;40833;53.238;6.576;2024-03-02T11:44:50;11.50;99.90
54930;DHT22;40833;53.238;6.576;2024-03-02T11:47:17;11.50;99.90
54930;DHT22;40833;53.238;6.576;2024-03-02T11:49:49;11.50;99.90
54930;DHT22;40833;53.238;6.576;2024-03-02T11:52:16;11.50;99.90
54930;DHT22;40833;53.238;6.576;2024-03-02T11:54:46;11.40;99.90
54930;DHT22;40833;53.238;6.576;2024-03-02T11:57:16;11.20;99.90
54930;DHT22;40833;53.238;6.576;2024-03-02T11:59:43;11.20;99.90
54930;DHT22;40833;53.238;6.576;2024-03-02T12:02:35;11.30;99.90
54930;DHT22;40833;53.238;6.576;2024-03-02T12:05:03;11.40;99.90
54930;DHT22;40833;53.238;6.576;2024-03-02T12:07:30;11.50;99.90
54930;DHT22;40833;53.238;6.576;2024-03-02T12:10:02;11.60;99.90
54930;DHT22;40833;53.238;6.576;2024-03-02T12:12:28;11.70;99.90
54930;DHT22;40833;53.238;6.576;2024-03-02T12:14:54;11.70;99.90
54930;DHT22;40833;53.238;6.576;2024-03-02T12:17:22;11.70;99.90
54930;DHT22;40833;53.238;6.576;2024-03-02T12:19:48;11.90;99.90
54930;DHT22;40833;53.238;6.576;2024-03-02T12:22:14;12.00;99.90
54930;DHT22;40833;53.238;6.576;2024-03-02T12:24:41;12.10;99.90
54930;DHT22;40833;53.238;6.576;2024-03-02T12:27:07;12.20;99.90
54930;DHT22;40833;53.238;6.576;2024-03-02T12:29:34;12.20;99.90
54930;DHT22;40833;53.238;6.576;2024-03-02T12:32:00;12.20;99.90
54930;DHT22;40833;53.238;6.576;2024-03-02T12:34:27;12.20;99.90
54930;DHT22;40833;53.238;6.576;2024-03-02T12:36:53;12.20;99.90
54930;DHT22;40833;53.238;6.576;2024-03-02T12:39:19;12.20;99.90
54930;DHT22;40833;53.238;6.576;2024-03-02T12:41:50;12.20;99.90
54930;DHT22;40833;53.238;6.576;2024-03-02T12:44:19;12.30;99.90
54930;DHT22;40833;53.238;6.576;2024-03-02T12:46:46;12.50;99.90
54930;DHT22;40833;53.238;6.576;2024-03-02T12:49:14;12.50;99.90
54930;DHT22;40833;53.238;6.576;2024-03-02T12:51:42;12.40;99.90
54930;DHT22;40833;53.238;6.576;2024-03-02T12:54:08;12.50;99.90
54930;DHT22;40833;53.238;6.576;2024-03-02T12:56:35;12.70;99.90
54930;DHT22;40833;53.238;6.576;2024-03-02T12:59:01;12.70;99.90
54930;DHT22;40833;53.238;6.576;2024-03-02T13:01:27;12.70;99.90
54930;DHT22;40833;53.238;6.576;2024-03-02T13:03:54;12.70;99.90
54930;DHT22;40833;53.238;6.576;2024-03-02T13:06:23;12.50;99.90
54930;DHT22;40833;53.238;6.576;2024-03-02T13:08:49;12.50;99.90
54930;DHT22;40833;53.238;6.576;2024-03-02T13:11:16;12.60;99.90
54930;DHT22;40833;53.238;6.576;2024-03-02T13:13:42;12.60;99.90
54930;DHT22;40833;53.238;6.576;2024-03-02T13:16:09;12.50;99.90
54930;DHT22;40833;53.238;6.576;2024-03-02T13:18:35;12.50;99.90
54930;DHT22;40833;53.238;6.576;2024-03-02T13:21:00;12.40;99.90
54930;DHT22;40833;53.238;6.576;2024-03-02T13:23:26;12.30;99.90
54930;DHT22;40833;53.238;6.576;2024-03-02T13:25:52;12.40;99.90
54930;DHT22;40833;53.238;6.576;2024-03-02T13:28:18;12.60;99.90
54930;DHT22;40833;53.238;6.576;2024-03-02T13:30:43;12.80;99.90
54930;DHT22;40833;53.238;6.576;2024-03-02T13:33:09;13.00;99.90
54930;DHT22;40833;53.238;6.576;2024-03-02T13:35:35;13.00;99.90
54930;DHT22;40833;53.238;6.576;2024-03-02T13:38:01;12.90;99.90
54930;DHT22;40833;53.238;6.576;2024-03-02T13:40:26;12.80;99.90
54930;DHT22;40833;53.238;6.576;2024-03-02T13:42:53;12.70;99.90
54930;DHT22;40833;53.238;6.576;2024-03-02T13:45:19;12.70;99.90
54930;DHT22;40833;53.238;6.576;2024-03-02T13:47:45;12.80;99.90
54930;DHT22;40833;53.238;6.576;2024-03-02T13:50:10;12.80;99.90
54930;DHT22;40833;53.238;6.576;2024-03-02T13:52:36;12.80;99.90
54930;DHT22;40833;53.238;6.576;2024-03-02T13:55:02;12.80;99.90
54930;DHT22;40833;53.238;6.576;2024-03-02T13:57:27;13.00;99.90
54930;DHT22;40833;53.238;6.576;2024-03-02T13:59:54;13.10;99.90
54930;DHT22;40833;53.238;6.576;2024-03-02T14:02:20;13.20;99.90
54930;DHT22;40833;53.238;6.576;2024-03-02T14:04:46;13.20;99.90
54930;DHT22;40833;53.238;6.576;2024-03-02T14:07:13;13.20;99.90
54930;DHT22;40833;53.238;6.576;2024-03-02T14:09:39;13.30;99.90
54930;DHT22;40833;53.238;6.576;2024-03-02T14:12:05;13.50;99.90
54930;DHT22;40833;53.238;6.576;2024-03-02T14:14:31;13.40;99.90
54930;DHT22;40833;53.238;6.576;2024-03-02T14:16:57;13.40;99.90
54930;DHT22;40833;53.238;6.576;2024-03-02T14:19:26;13.40;99.90
54930;DHT22;40833;53.238;6.576;2024-03-02T14:21:52;13.50;99.90
54930;DHT22;40833;53.238;6.576;2024-03-02T14:24:18;13.70;99.90
54930;DHT22;40833;53.238;6.576;2024-03-02T14:26:45;13.80;99.90
54930;DHT22;40833;53.238;6.576;2024-03-02T14:29:11;13.90;99.90
54930;DHT22;40833;53.238;6.576;2024-03-02T14:31:36;13.90;99.90
54930;DHT22;40833;53.238;6.576;2024-03-02T14:34:02;13.80;99.90
54930;DHT22;40833;53.238;6.576;2024-03-02T14:36:28;13.70;99.90
54930;DHT22;40833;53.238;6.576;2024-03-02T14:38:54;13.50;99.90
54930;DHT22;40833;53.238;6.576;2024-03-02T14:41:20;13.50;99.90
54930;DHT22;40833;53.238;6.576;2024-03-02T14:43:45;13.50;99.90
54930;DHT22;40833;53.238;6.576;2024-03-02T14:46:11;13.70;99.90
54930;DHT22;40833;53.238;6.576;2024-03-02T14:48:37;13.80;99.90
54930;DHT22;40833;53.238;6.576;2024-03-02T14:51:04;14.00;99.90
54930;DHT22;40833;53.238;6.576;2024-03-02T14:53:30;14.00;99.90
54930;DHT22;40833;53.238;6.576;2024-03-02T14:55:55;14.00;99.90
54930;DHT22;40833;53.238;6.576;2024-03-02T14:58:21;14.10;99.90
54930;DHT22;40833;53.238;6.576;2024-03-02T15:00:47;14.30;99.90
54930;DHT22;40833;53.238;6.576;2024-03-02T15:03:13;14.40;99.90
54930;DHT22;40833;53.238;6.576;2024-03-02T15:05:39;14.60;99.90
54930;DHT22;40833;53.238;6.576;2024-03-02T15:08:06;14.60;99.90
54930;DHT22;40833;53.238;6.576;2024-03-02T15:10:31;14.40;99.90
54930;DHT22;40833;53.238;6.576;2024-03-02T15:13:00;14.40;99.90
54930;DHT22;40833;53.238;6.576;2024-03-02T15:15:26;14.60;99.90
54930;DHT22;40833;53.238;6.576;2024-03-02T15:17:52;14.80;99.90
54930;DHT22;40833;53.238;6.576;2024-03-02T15:20:18;14.90;99.90
54930;DHT22;40833;53.238;6.576;2024-03-02T15:22:45;14.90;99.90
54930;DHT22;40833;53.238;6.576;2024-03-02T15:25:11;14.70;99.90
54930;DHT22;40833;53.238;6.576;2024-03-02T15:27:37;14.50;99.90
54930;DHT22;40833;53.238;6.576;2024-03-02T15:30:03;14.30;99.90
54930;DHT22;40833;53.238;6.576;2024-03-02T15:32:29;14.10;99.90
54930;DHT22;40833;53.238;6.576;2024-03-02T15:34:55;14.20;99.90
54930;DHT22;40833;53.238;6.576;2024-03-02T15:37:21;14.50;99.90
54930;DHT22;40833;53.238;6.576;2024-03-02T15:39:46;14.80;99.90
54930;DHT22;40833;53.238;6.576;2024-03-02T15:42:12;14.90;99.90
54930;DHT22;40833;53.238;6.576;2024-03-02T15:44:38;14.90;99.90